sensor_id;sensor_type;location;lat;lon;timestamp;P1;durP1;ratioP1;P2;durP2;ratioP2
75400;SDS011;63974;47.538;18.972;2023-06-19T00:01:59;10.27;;;5.72;;
75400;SDS011;63974;47.538;18.972;2023-06-19T00:05:02;6.63;;;5.23;;
75400;SDS011;63974;47.538;18.972;2023-06-19T00:08:05;8.52;;;5.68;;
75400;SDS011;63974;47.538;18.972;2023-06-19T00:11:08;7.32;;;5.70;;
75400;SDS011;63974;47.538;18.972;2023-06-19T00:14:11;7.60;;;5.97;;
75400;SDS011;63974;47.538;18.972;2023-06-19T00:17:14;8.85;;;5.68;;
75400;SDS011;63974;47.538;18.972;2023-06-19T00:20:19;8.83;;;6.10;;
75400;SDS011;63974;47.538;18.972;2023-06-19T00:23:23;9.20;;;6.45;;
75400;SDS011;63974;47.538;18.972;2023-06-19T00:26:26;10.35;;;5.57;;
75400;SDS011;63974;47.538;18.972;2023-06-19T00:29:29;7.75;;;5.78;;
75400;SDS011;63974;47.538;18.972;2023-06-19T00:32:32;7.25;;;5.90;;
75400;SDS011;63974;47.538;18.972;2023-06-19T00:35:52;7.40;;;5.53;;
75400;SDS011;63974;47.538;18.972;2023-06-19T00:38:56;9.48;;;5.68;;
75400;SDS011;63974;47.538;18.972;2023-06-19T00:41:59;8.18;;;5.13;;
75400;SDS011;63974;47.538;18.972;2023-06-19T00:45:02;7.25;;;5.70;;
75400;SDS011;63974;47.538;18.972;2023-06-19T00:48:04;8.23;;;5.85;;
75400;SDS011;63974;47.538;18.972;2023-06-19T00:51:08;11.93;;;5.73;;
75400;SDS011;63974;47.538;18.972;2023-06-19T00:54:11;10.98;;;6.43;;
75400;SDS011;63974;47.538;18.972;2023-06-19T00:57:14;9.73;;;5.88;;
75400;SDS011;63974;47.538;18.972;2023-06-19T01:00:17;8.73;;;6.30;;
75400;SDS011;63974;47.538;18.972;2023-06-19T01:03:20;9.63;;;6.55;;
75400;SDS011;63974;47.538;18.972;2023-06-19T01:06:27;9.00;;;6.20;;
75400;SDS011;63974;47.538;18.972;2023-06-19T01:09:45;9.25;;;6.50;;
75400;SDS011;63974;47.538;18.972;2023-06-19T01:12:57;9.82;;;6.25;;
75400;SDS011;63974;47.538;18.972;2023-06-19T01:16:03;7.78;;;5.80;;
75400;SDS011;63974;47.538;18.972;2023-06-19T01:19:10;11.15;;;6.25;;
75400;SDS011;63974;47.538;18.972;2023-06-19T01:22:27;8.80;;;6.40;;
75400;SDS011;63974;47.538;18.972;2023-06-19T01:25:33;7.78;;;6.00;;
75400;SDS011;63974;47.538;18.972;2023-06-19T01:28:36;10.80;;;6.07;;
75400;SDS011;63974;47.538;18.972;2023-06-19T01:31:52;7.03;;;5.78;;
75400;SDS011;63974;47.538;18.972;2023-06-19T01:34:58;9.20;;;5.78;;
75400;SDS011;63974;47.538;18.972;2023-06-19T01:38:04;8.83;;;6.33;;
75400;SDS011;63974;47.538;18.972;2023-06-19T01:41:09;7.65;;;6.07;;
75400;SDS011;63974;47.538;18.972;2023-06-19T01:44:12;10.93;;;6.10;;
75400;SDS011;63974;47.538;18.972;2023-06-19T01:47:16;9.38;;;6.47;;
75400;SDS011;63974;47.538;18.972;2023-06-19T01:50:22;7.97;;;5.70;;
75400;SDS011;63974;47.538;18.972;2023-06-19T01:53:26;8.20;;;5.90;;
75400;SDS011;63974;47.538;18.972;2023-06-19T01:56:29;7.72;;;5.72;;
75400;SDS011;63974;47.538;18.972;2023-06-19T01:59:32;7.05;;;5.65;;
75400;SDS011;63974;47.538;18.972;2023-06-19T02:02:35;10.15;;;5.97;;
75400;SDS011;63974;47.538;18.972;2023-06-19T02:05:39;8.05;;;5.63;;
75400;SDS011;63974;47.538;18.972;2023-06-19T02:08:42;9.73;;;6.83;;
75400;SDS011;63974;47.538;18.972;2023-06-19T02:11:46;8.18;;;5.60;;
75400;SDS011;63974;47.538;18.972;2023-06-19T02:14:48;8.50;;;5.40;;
75400;SDS011;63974;47.538;18.972;2023-06-19T02:17:51;9.13;;;6.15;;
75400;SDS011;63974;47.538;18.972;2023-06-19T02:20:57;10.68;;;6.05;;
75400;SDS011;63974;47.538;18.972;2023-06-19T02:24:00;12.13;;;6.80;;
75400;SDS011;63974;47.538;18.972;2023-06-19T02:27:03;10.65;;;6.60;;
75400;SDS011;63974;47.538;18.972;2023-06-19T02:30:06;11.57;;;6.88;;
75400;SDS011;63974;47.538;18.972;2023-06-19T02:33:09;11.07;;;6.32;;
75400;SDS011;63974;47.538;18.972;2023-06-19T02:36:12;9.83;;;6.27;;
75400;SDS011;63974;47.538;18.972;2023-06-19T02:39:15;9.80;;;6.87;;
75400;SDS011;63974;47.538;18.972;2023-06-19T02:42:18;11.48;;;6.25;;
75400;SDS011;63974;47.538;18.972;2023-06-19T02:45:20;11.13;;;5.93;;
75400;SDS011;63974;47.538;18.972;2023-06-19T02:48:23;11.20;;;6.60;;
75400;SDS011;63974;47.538;18.972;2023-06-19T02:51:26;12.25;;;6.55;;
75400;SDS011;63974;47.538;18.972;2023-06-19T02:54:29;11.73;;;6.50;;
75400;SDS011;63974;47.538;18.972;2023-06-19T02:57:33;8.82;;;6.32;;
75400;SDS011;63974;47.538;18.972;2023-06-19T03:00:37;10.93;;;6.65;;
75400;SDS011;63974;47.538;18.972;2023-06-19T03:03:40;10.32;;;6.20;;
75400;SDS011;63974;47.538;18.972;2023-06-19T03:06:43;10.35;;;6.07;;
75400;SDS011;63974;47.538;18.972;2023-06-19T03:09:46;11.37;;;6.80;;
75400;SDS011;63974;47.538;18.972;2023-06-19T03:12:49;11.85;;;6.13;;
75400;SDS011;63974;47.538;18.972;2023-06-19T03:15:52;14.00;;;6.78;;
75400;SDS011;63974;47.538;18.972;2023-06-19T03:18:54;12.40;;;6.80;;
75400;SDS011;63974;47.538;18.972;2023-06-19T03:21:58;12.55;;;6.45;;
75400;SDS011;63974;47.538;18.972;2023-06-19T03:25:01;14.50;;;7.03;;
75400;SDS011;63974;47.538;18.972;2023-06-19T03:28:04;10.98;;;6.20;;
75400;SDS011;63974;47.538;18.972;2023-06-19T03:31:08;11.77;;;6.05;;
75400;SDS011;63974;47.538;18.972;2023-06-19T03:34:12;12.20;;;6.57;;
75400;SDS011;63974;47.538;18.972;2023-06-19T03:37:15;12.15;;;6.55;;
75400;SDS011;63974;47.538;18.972;2023-06-19T03:40:18;14.83;;;6.50;;
75400;SDS011;63974;47.538;18.972;2023-06-19T03:43:23;13.88;;;6.47;;
75400;SDS011;63974;47.538;18.972;2023-06-19T03:46:27;15.88;;;6.72;;
75400;SDS011;63974;47.538;18.972;2023-06-19T03:49:30;12.93;;;6.75;;
75400;SDS011;63974;47.538;18.972;2023-06-19T03:52:33;14.98;;;6.80;;
75400;SDS011;63974;47.538;18.972;2023-06-19T03:55:35;12.73;;;7.10;;
75400;SDS011;63974;47.538;18.972;2023-06-19T03:58:38;14.05;;;6.57;;
75400;SDS011;63974;47.538;18.972;2023-06-19T04:01:41;15.00;;;7.10;;
75400;SDS011;63974;47.538;18.972;2023-06-19T04:04:44;14.07;;;6.75;;
75400;SDS011;63974;47.538;18.972;2023-06-19T04:07:47;11.85;;;6.25;;
75400;SDS011;63974;47.538;18.972;2023-06-19T04:10:50;14.17;;;6.53;;
75400;SDS011;63974;47.538;18.972;2023-06-19T04:13:53;11.75;;;6.70;;
75400;SDS011;63974;47.538;18.972;2023-06-19T04:16:55;13.25;;;7.15;;
75400;SDS011;63974;47.538;18.972;2023-06-19T04:19:58;13.48;;;7.75;;
75400;SDS011;63974;47.538;18.972;2023-06-19T04:23:01;11.70;;;7.18;;
75400;SDS011;63974;47.538;18.972;2023-06-19T04:26:04;11.03;;;6.67;;
75400;SDS011;63974;47.538;18.972;2023-06-19T04:29:07;16.95;;;7.28;;
75400;SDS011;63974;47.538;18.972;2023-06-19T04:32:10;12.15;;;7.38;;
75400;SDS011;63974;47.538;18.972;2023-06-19T04:35:14;11.05;;;7.10;;
75400;SDS011;63974;47.538;18.972;2023-06-19T04:38:16;13.68;;;7.50;;
75400;SDS011;63974;47.538;18.972;2023-06-19T04:41:19;12.23;;;7.87;;
75400;SDS011;63974;47.538;18.972;2023-06-19T04:44:22;13.18;;;7.57;;
75400;SDS011;63974;47.538;18.972;2023-06-19T04:47:25;11.63;;;7.60;;
75400;SDS011;63974;47.538;18.972;2023-06-19T04:50:41;13.07;;;7.63;;
75400;SDS011;63974;47.538;18.972;2023-06-19T04:53:43;14.10;;;8.05;;
75400;SDS011;63974;47.538;18.972;2023-06-19T04:56:46;12.63;;;7.90;;
75400;SDS011;63974;47.538;18.972;2023-06-19T04:59:49;10.73;;;8.05;;
75400;SDS011;63974;47.538;18.972;2023-06-19T05:02:52;13.32;;;7.15;;
75400;SDS011;63974;47.538;18.972;2023-06-19T05:05:54;11.73;;;7.75;;
75400;SDS011;63974;47.538;18.972;2023-06-19T05:08:57;14.32;;;7.63;;
75400;SDS011;63974;47.538;18.972;2023-06-19T05:12:00;12.50;;;7.97;;
75400;SDS011;63974;47.538;18.972;2023-06-19T05:15:03;11.95;;;7.93;;
75400;SDS011;63974;47.538;18.972;2023-06-19T05:18:06;12.45;;;7.82;;
75400;SDS011;63974;47.538;18.972;2023-06-19T05:21:09;14.23;;;7.68;;
75400;SDS011;63974;47.538;18.972;2023-06-19T05:24:12;11.68;;;7.60;;
75400;SDS011;63974;47.538;18.972;2023-06-19T05:27:14;15.30;;;10.57;;
75400;SDS011;63974;47.538;18.972;2023-06-19T05:30:17;12.70;;;10.70;;
75400;SDS011;63974;47.538;18.972;2023-06-19T05:33:20;13.43;;;10.25;;
75400;SDS011;63974;47.538;18.972;2023-06-19T05:36:25;15.02;;;9.20;;
75400;SDS011;63974;47.538;18.972;2023-06-19T05:39:28;11.95;;;8.43;;
75400;SDS011;63974;47.538;18.972;2023-06-19T05:42:31;11.40;;;8.70;;
75400;SDS011;63974;47.538;18.972;2023-06-19T05:45:34;12.18;;;9.10;;
75400;SDS011;63974;47.538;18.972;2023-06-19T05:48:37;12.60;;;9.38;;
75400;SDS011;63974;47.538;18.972;2023-06-19T05:51:40;9.30;;;8.10;;
75400;SDS011;63974;47.538;18.972;2023-06-19T05:54:43;11.15;;;8.35;;
75400;SDS011;63974;47.538;18.972;2023-06-19T05:57:45;12.07;;;8.23;;
75400;SDS011;63974;47.538;18.972;2023-06-19T06:00:48;12.77;;;10.23;;
75400;SDS011;63974;47.538;18.972;2023-06-19T06:03:51;16.25;;;10.70;;
75400;SDS011;63974;47.538;18.972;2023-06-19T06:06:56;15.27;;;10.68;;
75400;SDS011;63974;47.538;18.972;2023-06-19T06:09:59;11.68;;;9.93;;
75400;SDS011;63974;47.538;18.972;2023-06-19T06:13:01;14.87;;;10.70;;
75400;SDS011;63974;47.538;18.972;2023-06-19T06:16:04;11.50;;;10.30;;
75400;SDS011;63974;47.538;18.972;2023-06-19T06:19:07;13.15;;;9.85;;
75400;SDS011;63974;47.538;18.972;2023-06-19T06:22:10;13.93;;;10.30;;
75400;SDS011;63974;47.538;18.972;2023-06-19T06:25:13;12.43;;;10.18;;
75400;SDS011;63974;47.538;18.972;2023-06-19T06:28:17;14.43;;;10.90;;
75400;SDS011;63974;47.538;18.972;2023-06-19T06:31:20;14.10;;;8.85;;
75400;SDS011;63974;47.538;18.972;2023-06-19T06:34:24;13.30;;;9.68;;
75400;SDS011;63974;47.538;18.972;2023-06-19T06:37:27;11.00;;;9.77;;
75400;SDS011;63974;47.538;18.972;2023-06-19T06:40:30;12.27;;;9.15;;
75400;SDS011;63974;47.538;18.972;2023-06-19T06:43:34;11.33;;;9.17;;
75400;SDS011;63974;47.538;18.972;2023-06-19T06:46:37;12.63;;;9.10;;
75400;SDS011;63974;47.538;18.972;2023-06-19T06:49:40;12.52;;;8.98;;
75400;SDS011;63974;47.538;18.972;2023-06-19T06:52:43;11.13;;;9.25;;
75400;SDS011;63974;47.538;18.972;2023-06-19T06:55:46;10.20;;;9.03;;
75400;SDS011;63974;47.538;18.972;2023-06-19T06:58:49;11.70;;;8.57;;
75400;SDS011;63974;47.538;18.972;2023-06-19T07:01:52;12.00;;;8.98;;
75400;SDS011;63974;47.538;18.972;2023-06-19T07:04:56;12.38;;;8.82;;
75400;SDS011;63974;47.538;18.972;2023-06-19T07:07:59;11.63;;;9.48;;
75400;SDS011;63974;47.538;18.972;2023-06-19T07:11:02;12.85;;;10.20;;
75400;SDS011;63974;47.538;18.972;2023-06-19T07:14:05;12.17;;;9.27;;
75400;SDS011;63974;47.538;18.972;2023-06-19T07:17:08;12.82;;;10.48;;
75400;SDS011;63974;47.538;18.972;2023-06-19T07:20:11;13.90;;;10.75;;
75400;SDS011;63974;47.538;18.972;2023-06-19T07:23:14;13.65;;;10.00;;
75400;SDS011;63974;47.538;18.972;2023-06-19T07:26:17;12.02;;;9.68;;
75400;SDS011;63974;47.538;18.972;2023-06-19T07:29:21;14.73;;;11.77;;
75400;SDS011;63974;47.538;18.972;2023-06-19T07:32:24;12.32;;;10.48;;
75400;SDS011;63974;47.538;18.972;2023-06-19T07:35:28;12.63;;;10.77;;
75400;SDS011;63974;47.538;18.972;2023-06-19T07:38:31;13.25;;;10.70;;
75400;SDS011;63974;47.538;18.972;2023-06-19T07:41:34;12.53;;;10.43;;
75400;SDS011;63974;47.538;18.972;2023-06-19T07:44:37;8.67;;;7.03;;
75400;SDS011;63974;47.538;18.972;2023-06-19T07:47:40;10.98;;;8.80;;
75400;SDS011;63974;47.538;18.972;2023-06-19T07:50:43;11.02;;;8.30;;
75400;SDS011;63974;47.538;18.972;2023-06-19T07:53:47;9.95;;;8.68;;
75400;SDS011;63974;47.538;18.972;2023-06-19T07:56:49;9.38;;;8.43;;
75400;SDS011;63974;47.538;18.972;2023-06-19T07:59:53;10.17;;;7.90;;
75400;SDS011;63974;47.538;18.972;2023-06-19T08:02:56;12.02;;;8.13;;
75400;SDS011;63974;47.538;18.972;2023-06-19T08:05:59;9.63;;;8.55;;
75400;SDS011;63974;47.538;18.972;2023-06-19T08:09:02;9.35;;;7.88;;
75400;SDS011;63974;47.538;18.972;2023-06-19T08:12:05;11.18;;;7.88;;
75400;SDS011;63974;47.538;18.972;2023-06-19T08:15:09;7.83;;;7.03;;
75400;SDS011;63974;47.538;18.972;2023-06-19T08:18:12;8.65;;;7.78;;
75400;SDS011;63974;47.538;18.972;2023-06-19T08:21:15;10.77;;;8.40;;
75400;SDS011;63974;47.538;18.972;2023-06-19T08:24:18;8.35;;;7.43;;
75400;SDS011;63974;47.538;18.972;2023-06-19T08:27:21;9.48;;;7.60;;
75400;SDS011;63974;47.538;18.972;2023-06-19T08:30:23;10.03;;;7.93;;
75400;SDS011;63974;47.538;18.972;2023-06-19T08:33:27;9.65;;;8.05;;
75400;SDS011;63974;47.538;18.972;2023-06-19T08:36:30;9.07;;;8.02;;
75400;SDS011;63974;47.538;18.972;2023-06-19T08:39:34;8.43;;;7.53;;
75400;SDS011;63974;47.538;18.972;2023-06-19T08:42:41;11.30;;;7.33;;
75400;SDS011;63974;47.538;18.972;2023-06-19T08:45:56;8.73;;;7.37;;
75400;SDS011;63974;47.538;18.972;2023-06-19T08:49:14;10.70;;;8.00;;
75400;SDS011;63974;47.538;18.972;2023-06-19T08:52:18;9.27;;;7.70;;
75400;SDS011;63974;47.538;18.972;2023-06-19T08:55:21;9.73;;;7.82;;
75400;SDS011;63974;47.538;18.972;2023-06-19T08:58:25;8.38;;;7.43;;
75400;SDS011;63974;47.538;18.972;2023-06-19T09:01:28;9.87;;;7.50;;
75400;SDS011;63974;47.538;18.972;2023-06-19T09:04:31;11.52;;;7.70;;
75400;SDS011;63974;47.538;18.972;2023-06-19T09:07:34;7.78;;;7.05;;
75400;SDS011;63974;47.538;18.972;2023-06-19T09:10:36;7.82;;;7.13;;
75400;SDS011;63974;47.538;18.972;2023-06-19T09:13:39;7.73;;;6.97;;
75400;SDS011;63974;47.538;18.972;2023-06-19T09:16:42;10.37;;;7.03;;
75400;SDS011;63974;47.538;18.972;2023-06-19T09:19:48;8.13;;;7.32;;
75400;SDS011;63974;47.538;18.972;2023-06-19T09:22:58;9.70;;;6.65;;
75400;SDS011;63974;47.538;18.972;2023-06-19T09:26:01;8.82;;;7.07;;
75400;SDS011;63974;47.538;18.972;2023-06-19T09:29:13;8.73;;;7.07;;
75400;SDS011;63974;47.538;18.972;2023-06-19T09:32:26;7.60;;;6.67;;
75400;SDS011;63974;47.538;18.972;2023-06-19T09:35:31;9.20;;;7.22;;
75400;SDS011;63974;47.538;18.972;2023-06-19T09:38:37;7.03;;;6.32;;
75400;SDS011;63974;47.538;18.972;2023-06-19T09:41:46;8.57;;;6.93;;
75400;SDS011;63974;47.538;18.972;2023-06-19T09:44:52;7.83;;;7.13;;
75400;SDS011;63974;47.538;18.972;2023-06-19T09:48:01;7.10;;;6.40;;
75400;SDS011;63974;47.538;18.972;2023-06-19T09:51:25;7.85;;;6.25;;
75400;SDS011;63974;47.538;18.972;2023-06-19T09:54:33;9.02;;;7.32;;
75400;SDS011;63974;47.538;18.972;2023-06-19T09:57:38;7.18;;;6.47;;
75400;SDS011;63974;47.538;18.972;2023-06-19T10:00:41;7.88;;;6.70;;
75400;SDS011;63974;47.538;18.972;2023-06-19T10:03:44;7.37;;;6.67;;
75400;SDS011;63974;47.538;18.972;2023-06-19T10:06:48;6.60;;;5.93;;
75400;SDS011;63974;47.538;18.972;2023-06-19T10:10:01;6.95;;;6.25;;
75400;SDS011;63974;47.538;18.972;2023-06-19T10:13:13;6.43;;;5.82;;
75400;SDS011;63974;47.538;18.972;2023-06-19T10:16:22;8.07;;;6.10;;
75400;SDS011;63974;47.538;18.972;2023-06-19T10:19:28;6.10;;;5.50;;
75400;SDS011;63974;47.538;18.972;2023-06-19T10:22:31;7.32;;;6.63;;
75400;SDS011;63974;47.538;18.972;2023-06-19T10:25:34;7.47;;;6.40;;
75400;SDS011;63974;47.538;18.972;2023-06-19T10:28:45;7.05;;;6.32;;
75400;SDS011;63974;47.538;18.972;2023-06-19T10:31:49;8.67;;;6.80;;
75400;SDS011;63974;47.538;18.972;2023-06-19T10:34:52;7.03;;;6.33;;
75400;SDS011;63974;47.538;18.972;2023-06-19T10:37:55;6.60;;;6.00;;
75400;SDS011;63974;47.538;18.972;2023-06-19T10:40:58;7.03;;;6.32;;
75400;SDS011;63974;47.538;18.972;2023-06-19T10:44:01;9.13;;;6.38;;
75400;SDS011;63974;47.538;18.972;2023-06-19T10:47:14;6.93;;;6.23;;
75400;SDS011;63974;47.538;18.972;2023-06-19T10:50:17;7.90;;;6.93;;
75400;SDS011;63974;47.538;18.972;2023-06-19T10:53:26;7.28;;;6.68;;
75400;SDS011;63974;47.538;18.972;2023-06-19T10:56:32;7.55;;;6.80;;
75400;SDS011;63974;47.538;18.972;2023-06-19T10:59:35;8.05;;;7.25;;
75400;SDS011;63974;47.538;18.972;2023-06-19T11:02:39;8.13;;;6.47;;
75400;SDS011;63974;47.538;18.972;2023-06-19T11:05:46;7.73;;;7.10;;
75400;SDS011;63974;47.538;18.972;2023-06-19T11:08:52;7.68;;;6.45;;
75400;SDS011;63974;47.538;18.972;2023-06-19T11:11:55;6.55;;;5.90;;
75400;SDS011;63974;47.538;18.972;2023-06-19T11:14:58;8.70;;;5.70;;
75400;SDS011;63974;47.538;18.972;2023-06-19T11:18:01;6.13;;;5.53;;
75400;SDS011;63974;47.538;18.972;2023-06-19T11:21:04;7.77;;;5.67;;
75400;SDS011;63974;47.538;18.972;2023-06-19T11:24:11;7.03;;;6.25;;
75400;SDS011;63974;47.538;18.972;2023-06-19T11:27:17;6.82;;;5.97;;
75400;SDS011;63974;47.538;18.972;2023-06-19T11:30:29;7.20;;;6.50;;
75400;SDS011;63974;47.538;18.972;2023-06-19T11:33:33;6.40;;;5.90;;
75400;SDS011;63974;47.538;18.972;2023-06-19T11:36:37;7.47;;;5.93;;
75400;SDS011;63974;47.538;18.972;2023-06-19T11:39:45;6.75;;;6.05;;
75400;SDS011;63974;47.538;18.972;2023-06-19T11:42:49;6.85;;;6.00;;
75400;SDS011;63974;47.538;18.972;2023-06-19T11:46:02;7.43;;;6.63;;
75400;SDS011;63974;47.538;18.972;2023-06-19T11:49:10;7.13;;;6.43;;
75400;SDS011;63974;47.538;18.972;2023-06-19T11:52:15;6.97;;;6.37;;
75400;SDS011;63974;47.538;18.972;2023-06-19T11:55:18;6.45;;;5.80;;
75400;SDS011;63974;47.538;18.972;2023-06-19T11:58:21;7.65;;;6.55;;
75400;SDS011;63974;47.538;18.972;2023-06-19T12:01:23;6.88;;;6.05;;
75400;SDS011;63974;47.538;18.972;2023-06-19T12:04:26;6.27;;;5.67;;
75400;SDS011;63974;47.538;18.972;2023-06-19T12:07:29;6.67;;;6.07;;
75400;SDS011;63974;47.538;18.972;2023-06-19T12:10:32;7.40;;;6.25;;
75400;SDS011;63974;47.538;18.972;2023-06-19T12:13:36;7.22;;;6.50;;
75400;SDS011;63974;47.538;18.972;2023-06-19T12:16:39;6.72;;;6.07;;
75400;SDS011;63974;47.538;18.972;2023-06-19T12:19:42;8.93;;;5.90;;
75400;SDS011;63974;47.538;18.972;2023-06-19T12:22:45;7.23;;;6.43;;
75400;SDS011;63974;47.538;18.972;2023-06-19T12:25:47;7.40;;;6.50;;
75400;SDS011;63974;47.538;18.972;2023-06-19T12:28:50;6.30;;;5.80;;
75400;SDS011;63974;47.538;18.972;2023-06-19T12:32:02;8.45;;;6.93;;
75400;SDS011;63974;47.538;18.972;2023-06-19T12:35:05;7.87;;;6.27;;
75400;SDS011;63974;47.538;18.972;2023-06-19T12:38:08;6.83;;;6.07;;
75400;SDS011;63974;47.538;18.972;2023-06-19T12:41:12;8.93;;;8.00;;
75400;SDS011;63974;47.538;18.972;2023-06-19T12:44:14;7.70;;;6.78;;
75400;SDS011;63974;47.538;18.972;2023-06-19T12:47:17;7.50;;;6.75;;
75400;SDS011;63974;47.538;18.972;2023-06-19T12:50:20;7.40;;;6.70;;
75400;SDS011;63974;47.538;18.972;2023-06-19T12:53:23;8.67;;;6.93;;
75400;SDS011;63974;47.538;18.972;2023-06-19T12:56:31;6.72;;;6.10;;
75400;SDS011;63974;47.538;18.972;2023-06-19T12:59:34;8.90;;;7.07;;
75400;SDS011;63974;47.538;18.972;2023-06-19T13:02:36;7.60;;;6.78;;
75400;SDS011;63974;47.538;18.972;2023-06-19T13:05:40;7.53;;;6.83;;
75400;SDS011;63974;47.538;18.972;2023-06-19T13:08:43;10.33;;;7.93;;
75400;SDS011;63974;47.538;18.972;2023-06-19T13:11:47;7.85;;;7.03;;
75400;SDS011;63974;47.538;18.972;2023-06-19T13:14:52;8.60;;;7.65;;
75400;SDS011;63974;47.538;18.972;2023-06-19T13:17:54;8.50;;;7.25;;
75400;SDS011;63974;47.538;18.972;2023-06-19T13:20:57;10.00;;;7.67;;
75400;SDS011;63974;47.538;18.972;2023-06-19T13:24:00;8.63;;;7.73;;
75400;SDS011;63974;47.538;18.972;2023-06-19T13:27:03;9.23;;;8.32;;
75400;SDS011;63974;47.538;18.972;2023-06-19T13:30:07;7.65;;;6.95;;
75400;SDS011;63974;47.538;18.972;2023-06-19T13:33:10;9.02;;;8.23;;
75400;SDS011;63974;47.538;18.972;2023-06-19T13:36:13;8.17;;;7.47;;
75400;SDS011;63974;47.538;18.972;2023-06-19T13:39:16;8.57;;;7.77;;
75400;SDS011;63974;47.538;18.972;2023-06-19T13:42:21;10.70;;;7.78;;
75400;SDS011;63974;47.538;18.972;2023-06-19T13:45:24;8.00;;;7.25;;
75400;SDS011;63974;47.538;18.972;2023-06-19T13:48:27;8.77;;;8.05;;
75400;SDS011;63974;47.538;18.972;2023-06-19T13:51:30;10.10;;;8.33;;
75400;SDS011;63974;47.538;18.972;2023-06-19T13:54:33;9.57;;;8.73;;
75400;SDS011;63974;47.538;18.972;2023-06-19T13:57:36;8.82;;;8.10;;
75400;SDS011;63974;47.538;18.972;2023-06-19T14:00:39;8.43;;;7.70;;
75400;SDS011;63974;47.538;18.972;2023-06-19T14:03:42;9.43;;;8.63;;
75400;SDS011;63974;47.538;18.972;2023-06-19T14:06:45;9.50;;;8.60;;
75400;SDS011;63974;47.538;18.972;2023-06-19T14:09:48;8.17;;;7.47;;
75400;SDS011;63974;47.538;18.972;2023-06-19T14:12:51;9.85;;;8.68;;
75400;SDS011;63974;47.538;18.972;2023-06-19T14:15:54;8.77;;;7.88;;
75400;SDS011;63974;47.538;18.972;2023-06-19T14:18:56;9.23;;;8.45;;
75400;SDS011;63974;47.538;18.972;2023-06-19T14:21:59;9.63;;;8.83;;
75400;SDS011;63974;47.538;18.972;2023-06-19T14:25:02;8.13;;;7.40;;
75400;SDS011;63974;47.538;18.972;2023-06-19T14:28:05;8.57;;;7.63;;
75400;SDS011;63974;47.538;18.972;2023-06-19T14:31:07;8.75;;;7.85;;
75400;SDS011;63974;47.538;18.972;2023-06-19T14:34:10;9.02;;;8.23;;
75400;SDS011;63974;47.538;18.972;2023-06-19T14:37:13;7.90;;;7.10;;
75400;SDS011;63974;47.538;18.972;2023-06-19T14:40:16;9.23;;;8.47;;
75400;SDS011;63974;47.538;18.972;2023-06-19T14:43:19;8.68;;;7.88;;
75400;SDS011;63974;47.538;18.972;2023-06-19T14:46:22;8.43;;;7.63;;
75400;SDS011;63974;47.538;18.972;2023-06-19T14:49:40;8.98;;;8.18;;
75400;SDS011;63974;47.538;18.972;2023-06-19T14:52:43;9.70;;;8.13;;
75400;SDS011;63974;47.538;18.972;2023-06-19T14:55:46;9.33;;;8.63;;
75400;SDS011;63974;47.538;18.972;2023-06-19T14:58:49;7.93;;;7.22;;
75400;SDS011;63974;47.538;18.972;2023-06-19T15:01:52;8.85;;;8.00;;
75400;SDS011;63974;47.538;18.972;2023-06-19T15:04:55;9.93;;;9.05;;
75400;SDS011;63974;47.538;18.972;2023-06-19T15:08:08;9.33;;;8.43;;
75400;SDS011;63974;47.538;18.972;2023-06-19T15:11:12;9.53;;;8.73;;
75400;SDS011;63974;47.538;18.972;2023-06-19T15:14:15;9.23;;;8.43;;
75400;SDS011;63974;47.538;18.972;2023-06-19T15:17:19;8.73;;;7.82;;
75400;SDS011;63974;47.538;18.972;2023-06-19T15:20:22;8.35;;;7.32;;
75400;SDS011;63974;47.538;18.972;2023-06-19T15:23:25;8.50;;;7.70;;
75400;SDS011;63974;47.538;18.972;2023-06-19T15:26:28;10.07;;;9.07;;
75400;SDS011;63974;47.538;18.972;2023-06-19T15:29:31;8.50;;;7.75;;
75400;SDS011;63974;47.538;18.972;2023-06-19T15:32:34;7.78;;;6.97;;
75400;SDS011;63974;47.538;18.972;2023-06-19T15:35:36;9.50;;;8.70;;
75400;SDS011;63974;47.538;18.972;2023-06-19T15:38:39;8.57;;;7.77;;
75400;SDS011;63974;47.538;18.972;2023-06-19T15:41:43;9.03;;;8.23;;
75400;SDS011;63974;47.538;18.972;2023-06-19T15:44:47;9.32;;;8.45;;
75400;SDS011;63974;47.538;18.972;2023-06-19T15:47:50;8.75;;;7.90;;
75400;SDS011;63974;47.538;18.972;2023-06-19T15:50:53;8.68;;;7.88;;
75400;SDS011;63974;47.538;18.972;2023-06-19T15:53:56;8.77;;;8.03;;
75400;SDS011;63974;47.538;18.972;2023-06-19T15:56:59;8.00;;;7.40;;
75400;SDS011;63974;47.538;18.972;2023-06-19T16:00:02;9.43;;;8.48;;
75400;SDS011;63974;47.538;18.972;2023-06-19T16:03:13;8.55;;;7.80;;
75400;SDS011;63974;47.538;18.972;2023-06-19T16:06:16;8.68;;;7.85;;
75400;SDS011;63974;47.538;18.972;2023-06-19T16:09:19;9.40;;;8.53;;
75400;SDS011;63974;47.538;18.972;2023-06-19T16:12:22;8.93;;;7.73;;
75400;SDS011;63974;47.538;18.972;2023-06-19T16:15:24;8.75;;;7.95;;
75400;SDS011;63974;47.538;18.972;2023-06-19T16:18:30;8.48;;;7.68;;
75400;SDS011;63974;47.538;18.972;2023-06-19T16:21:33;8.60;;;7.80;;
75400;SDS011;63974;47.538;18.972;2023-06-19T16:24:36;9.47;;;8.67;;
75400;SDS011;63974;47.538;18.972;2023-06-19T16:27:41;10.07;;;8.13;;
75400;SDS011;63974;47.538;18.972;2023-06-19T16:30:43;9.00;;;8.20;;
75400;SDS011;63974;47.538;18.972;2023-06-19T16:33:46;9.73;;;8.60;;
75400;SDS011;63974;47.538;18.972;2023-06-19T16:36:49;8.85;;;8.05;;
75400;SDS011;63974;47.538;18.972;2023-06-19T16:39:52;8.70;;;8.00;;
75400;SDS011;63974;47.538;18.972;2023-06-19T16:42:55;9.83;;;7.80;;
75400;SDS011;63974;47.538;18.972;2023-06-19T16:45:58;9.07;;;8.25;;
75400;SDS011;63974;47.538;18.972;2023-06-19T16:49:00;8.25;;;7.55;;
75400;SDS011;63974;47.538;18.972;2023-06-19T16:52:03;9.10;;;8.32;;
75400;SDS011;63974;47.538;18.972;2023-06-19T16:55:07;8.50;;;7.70;;
75400;SDS011;63974;47.538;18.972;2023-06-19T16:58:10;7.90;;;7.10;;
75400;SDS011;63974;47.538;18.972;2023-06-19T17:01:13;9.93;;;7.97;;
75400;SDS011;63974;47.538;18.972;2023-06-19T17:04:16;8.65;;;7.85;;
75400;SDS011;63974;47.538;18.972;2023-06-19T17:07:18;9.73;;;8.27;;
75400;SDS011;63974;47.538;18.972;2023-06-19T17:10:21;8.57;;;7.83;;
75400;SDS011;63974;47.538;18.972;2023-06-19T17:13:25;8.93;;;7.73;;
75400;SDS011;63974;47.538;18.972;2023-06-19T17:16:28;9.27;;;8.43;;
75400;SDS011;63974;47.538;18.972;2023-06-19T17:19:31;9.05;;;8.25;;
75400;SDS011;63974;47.538;18.972;2023-06-19T17:22:34;9.18;;;8.38;;
75400;SDS011;63974;47.538;18.972;2023-06-19T17:25:37;8.33;;;7.50;;
75400;SDS011;63974;47.538;18.972;2023-06-19T17:28:40;9.67;;;8.87;;
75400;SDS011;63974;47.538;18.972;2023-06-19T17:31:43;8.38;;;7.57;;
75400;SDS011;63974;47.538;18.972;2023-06-19T17:34:45;9.85;;;7.47;;
75400;SDS011;63974;47.538;18.972;2023-06-19T17:37:48;8.68;;;7.88;;
75400;SDS011;63974;47.538;18.972;2023-06-19T17:40:51;10.50;;;8.27;;
75400;SDS011;63974;47.538;18.972;2023-06-19T17:43:54;11.33;;;7.40;;
75400;SDS011;63974;47.538;18.972;2023-06-19T17:46:57;8.27;;;7.40;;
75400;SDS011;63974;47.538;18.972;2023-06-19T17:50:01;8.93;;;7.40;;
75400;SDS011;63974;47.538;18.972;2023-06-19T17:53:04;9.10;;;8.20;;
75400;SDS011;63974;47.538;18.972;2023-06-19T17:56:07;8.03;;;7.33;;
75400;SDS011;63974;47.538;18.972;2023-06-19T17:59:12;8.43;;;7.63;;
75400;SDS011;63974;47.538;18.972;2023-06-19T18:02:18;9.02;;;7.95;;
75400;SDS011;63974;47.538;18.972;2023-06-19T18:05:20;9.10;;;8.30;;